sensor_id;sensor_type;location;lat;lon;timestamp;pressure;altitude;pressure_sealevel;temperature;humidity
74561;BME280;62979;55.720;37.606;2023-05-25T00:00:18;99764.03;;;19.80;60.49
74561;BME280;62979;55.720;37.606;2023-05-25T00:02:45;99753.56;;;19.77;60.61
74561;BME280;62979;55.720;37.606;2023-05-25T00:05:12;99756.34;;;19.76;60.54
74561;BME280;62979;55.720;37.606;2023-05-25T00:07:39;99750.19;;;19.75;60.54
74561;BME280;62979;55.720;37.606;2023-05-25T00:10:08;99749.31;;;19.75;60.26
74561;BME280;62979;55.720;37.606;2023-05-25T00:12:35;99747.81;;;19.71;60.51
74561;BME280;62979;55.720;37.606;2023-05-25T00:15:02;99748.06;;;19.66;60.73
74561;BME280;62979;55.720;37.606;2023-05-25T00:17:31;99748.34;;;19.61;60.81
74561;BME280;62979;55.720;37.606;2023-05-25T00:19:58;99747.84;;;19.55;61.13
74561;BME280;62979;55.720;37.606;2023-05-25T00:22:32;99749.72;;;19.53;61.23
74561;BME280;62979;55.720;37.606;2023-05-25T00:25:00;99754.47;;;19.48;61.54
74561;BME280;62979;55.720;37.606;2023-05-25T00:27:26;99752.84;;;19.45;61.39
74561;BME280;62979;55.720;37.606;2023-05-25T00:29:53;99760.72;;;19.46;61.58
74561;BME280;62979;55.720;37.606;2023-05-25T00:32:20;99745.09;;;19.42;61.19
74561;BME280;62979;55.720;37.606;2023-05-25T00:34:49;99753.63;;;19.47;61.54
74561;BME280;62979;55.720;37.606;2023-05-25T00:37:16;99748.41;;;19.45;61.64
74561;BME280;62979;55.720;37.606;2023-05-25T00:39:43;99748.09;;;19.36;62.13
74561;BME280;62979;55.720;37.606;2023-05-25T00:42:10;99740.41;;;19.31;62.33
74561;BME280;62979;55.720;37.606;2023-05-25T00:44:37;99733.09;;;19.20;62.97
74561;BME280;62979;55.720;37.606;2023-05-25T00:47:04;99718.91;;;19.07;63.34
74561;BME280;62979;55.720;37.606;2023-05-25T00:49:34;99715.75;;;19.00;63.48
74561;BME280;62979;55.720;37.606;2023-05-25T00:52:03;99718.66;;;18.96;63.99
74561;BME280;62979;55.720;37.606;2023-05-25T00:54:30;99717.81;;;18.95;63.65
74561;BME280;62979;55.720;37.606;2023-05-25T00:57:00;99729.44;;;18.93;63.96
74561;BME280;62979;55.720;37.606;2023-05-25T00:59:32;99722.63;;;18.89;63.98
74561;BME280;62979;55.720;37.606;2023-05-25T01:02:02;99712.66;;;18.78;64.38
74561;BME280;62979;55.720;37.606;2023-05-25T01:04:34;99705.56;;;18.78;64.47
74561;BME280;62979;55.720;37.606;2023-05-25T01:07:06;99699.88;;;18.85;64.35
74561;BME280;62979;55.720;37.606;2023-05-25T01:09:37;99700.56;;;18.88;64.17
74561;BME280;62979;55.720;37.606;2023-05-25T01:12:08;99702.19;;;18.91;64.22
74561;BME280;62979;55.720;37.606;2023-05-25T01:14:38;99701.22;;;18.92;63.83
74561;BME280;62979;55.720;37.606;2023-05-25T01:17:05;99698.94;;;18.86;64.04
74561;BME280;62979;55.720;37.606;2023-05-25T01:19:32;99698.38;;;18.80;64.28
74561;BME280;62979;55.720;37.606;2023-05-25T01:22:07;99684.94;;;18.68;64.71
74561;BME280;62979;55.720;37.606;2023-05-25T01:24:44;99691.38;;;18.64;65.29
74561;BME280;62979;55.720;37.606;2023-05-25T01:27:17;99678.72;;;18.53;65.46
74561;BME280;62979;55.720;37.606;2023-05-25T01:29:50;99683.94;;;18.54;65.70
74561;BME280;62979;55.720;37.606;2023-05-25T01:32:20;99684.03;;;18.53;65.53
74561;BME280;62979;55.720;37.606;2023-05-25T01:34:49;99669.09;;;18.52;65.59
74561;BME280;62979;55.720;37.606;2023-05-25T01:37:19;99685.03;;;18.66;65.26
74561;BME280;62979;55.720;37.606;2023-05-25T01:39:48;99685.44;;;18.74;64.79
74561;BME280;62979;55.720;37.606;2023-05-25T01:42:15;99683.63;;;18.75;64.71
74561;BME280;62979;55.720;37.606;2023-05-25T01:44:43;99697.06;;;18.88;64.27
74561;BME280;62979;55.720;37.606;2023-05-25T01:47:15;99697.66;;;18.93;64.00
74561;BME280;62979;55.720;37.606;2023-05-25T01:49:55;99704.28;;;19.00;63.93
74561;BME280;62979;55.720;37.606;2023-05-25T01:52:33;99706.00;;;19.01;63.77
74561;BME280;62979;55.720;37.606;2023-05-25T01:55:05;99704.19;;;19.01;63.64
74561;BME280;62979;55.720;37.606;2023-05-25T01:57:40;99712.72;;;19.07;63.69
74561;BME280;62979;55.720;37.606;2023-05-25T02:00:09;99704.63;;;18.94;63.48
74561;BME280;62979;55.720;37.606;2023-05-25T02:02:40;99717.28;;;19.05;63.89
74561;BME280;62979;55.720;37.606;2023-05-25T02:05:10;99715.00;;;19.13;63.75
74561;BME280;62979;55.720;37.606;2023-05-25T02:07:38;99712.84;;;19.19;63.48
74561;BME280;62979;55.720;37.606;2023-05-25T02:10:06;99714.47;;;19.22;63.25
74561;BME280;62979;55.720;37.606;2023-05-25T02:12:33;99712.47;;;19.25;63.40
74561;BME280;62979;55.720;37.606;2023-05-25T02:15:00;99717.13;;;19.22;63.35
74561;BME280;62979;55.720;37.606;2023-05-25T02:17:27;99717.28;;;19.19;63.35
74561;BME280;62979;55.720;37.606;2023-05-25T02:19:54;99713.25;;;19.28;63.56
74561;BME280;62979;55.720;37.606;2023-05-25T02:22:22;99706.97;;;19.29;63.37
74561;BME280;62979;55.720;37.606;2023-05-25T02:24:50;99722.53;;;19.35;63.01
74561;BME280;62979;55.720;37.606;2023-05-25T02:27:17;99720.25;;;19.43;62.90
74561;BME280;62979;55.720;37.606;2023-05-25T02:29:44;99729.75;;;19.47;62.76
74561;BME280;62979;55.720;37.606;2023-05-25T02:32:11;99737.34;;;19.53;62.72
74561;BME280;62979;55.720;37.606;2023-05-25T02:34:38;99737.91;;;19.58;62.73
74561;BME280;62979;55.720;37.606;2023-05-25T02:37:05;99745.25;;;19.69;62.47
74561;BME280;62979;55.720;37.606;2023-05-25T02:39:32;99734.44;;;19.72;62.50
74561;BME280;62979;55.720;37.606;2023-05-25T02:42:00;99731.22;;;19.81;62.09
74561;BME280;62979;55.720;37.606;2023-05-25T02:44:27;99727.22;;;19.88;61.91
74561;BME280;62979;55.720;37.606;2023-05-25T02:46:54;99725.06;;;19.95;61.64
74561;BME280;62979;55.720;37.606;2023-05-25T02:49:21;99725.81;;;19.97;61.86
74561;BME280;62979;55.720;37.606;2023-05-25T02:51:47;99727.88;;;20.06;61.74
74561;BME280;62979;55.720;37.606;2023-05-25T02:54:14;99728.63;;;20.08;61.70
74561;BME280;62979;55.720;37.606;2023-05-25T02:56:43;99738.97;;;20.13;61.38
74561;BME280;62979;55.720;37.606;2023-05-25T02:59:11;99736.38;;;20.12;61.56
74561;BME280;62979;55.720;37.606;2023-05-25T03:01:38;99743.22;;;20.16;61.39
74561;BME280;62979;55.720;37.606;2023-05-25T03:04:05;99751.19;;;20.16;61.59
74561;BME280;62979;55.720;37.606;2023-05-25T03:06:32;99747.47;;;20.18;61.23
74561;BME280;62979;55.720;37.606;2023-05-25T03:09:00;99743.22;;;20.16;61.21
74561;BME280;62979;55.720;37.606;2023-05-25T03:11:29;99751.44;;;20.25;60.89
74561;BME280;62979;55.720;37.606;2023-05-25T03:13:56;99753.06;;;20.28;61.08
74561;BME280;62979;55.720;37.606;2023-05-25T03:16:24;99747.53;;;20.31;60.79
74561;BME280;62979;55.720;37.606;2023-05-25T03:18:51;99755.91;;;20.39;60.40
74561;BME280;62979;55.720;37.606;2023-05-25T03:21:18;99737.50;;;20.36;60.51
74561;BME280;62979;55.720;37.606;2023-05-25T03:23:46;99750.00;;;20.48;60.84
74561;BME280;62979;55.720;37.606;2023-05-25T03:26:13;99748.56;;;20.57;60.42
74561;BME280;62979;55.720;37.606;2023-05-25T03:28:41;99751.47;;;20.67;60.08
74561;BME280;62979;55.720;37.606;2023-05-25T03:31:08;99747.75;;;20.69;59.63
74561;BME280;62979;55.720;37.606;2023-05-25T03:33:37;99746.50;;;20.75;59.68
74561;BME280;62979;55.720;37.606;2023-05-25T03:36:06;99744.19;;;20.83;59.22
74561;BME280;62979;55.720;37.606;2023-05-25T03:38:35;99753.47;;;20.90;59.14
74561;BME280;62979;55.720;37.606;2023-05-25T03:41:02;99746.34;;;20.91;59.31
74561;BME280;62979;55.720;37.606;2023-05-25T03:43:29;99748.91;;;20.92;59.50
74561;BME280;62979;55.720;37.606;2023-05-25T03:45:57;99746.66;;;20.99;59.16
74561;BME280;62979;55.720;37.606;2023-05-25T03:48:24;99746.16;;;21.07;58.75
74561;BME280;62979;55.720;37.606;2023-05-25T03:50:52;99744.59;;;21.17;58.55
74561;BME280;62979;55.720;37.606;2023-05-25T03:53:19;99750.25;;;21.25;58.35
74561;BME280;62979;55.720;37.606;2023-05-25T03:55:46;99739.06;;;21.33;57.76
74561;BME280;62979;55.720;37.606;2023-05-25T03:58:16;99734.00;;;21.43;57.76
74561;BME280;62979;55.720;37.606;2023-05-25T04:00:43;99734.13;;;21.54;57.33
74561;BME280;62979;55.720;37.606;2023-05-25T04:03:10;99721.25;;;21.61;56.83
74561;BME280;62979;55.720;37.606;2023-05-25T04:05:37;99732.63;;;21.75;56.76
74561;BME280;62979;55.720;37.606;2023-05-25T04:08:05;99723.25;;;21.83;56.92
74561;BME280;62979;55.720;37.606;2023-05-25T04:10:33;99717.72;;;21.86;56.42
74561;BME280;62979;55.720;37.606;2023-05-25T04:12:59;99711.22;;;21.90;56.39
74561;BME280;62979;55.720;37.606;2023-05-25T04:15:26;99718.84;;;21.94;55.97
74561;BME280;62979;55.720;37.606;2023-05-25T04:17:54;99708.09;;;21.96;55.87
74561;BME280;62979;55.720;37.606;2023-05-25T04:20:23;99715.66;;;22.02;55.47
74561;BME280;62979;55.720;37.606;2023-05-25T04:22:50;99720.13;;;22.01;55.19
74561;BME280;62979;55.720;37.606;2023-05-25T04:25:19;99714.59;;;22.05;55.34
74561;BME280;62979;55.720;37.606;2023-05-25T04:27:46;99721.19;;;22.12;54.95
74561;BME280;62979;55.720;37.606;2023-05-25T04:30:13;99709.31;;;22.16;54.87
74561;BME280;62979;55.720;37.606;2023-05-25T04:32:40;99715.00;;;22.24;54.62
74561;BME280;62979;55.720;37.606;2023-05-25T04:35:10;99712.94;;;22.28;54.55
74561;BME280;62979;55.720;37.606;2023-05-25T04:37:39;99719.97;;;22.29;54.37
74561;BME280;62979;55.720;37.606;2023-05-25T04:40:07;99716.59;;;22.27;54.29
74561;BME280;62979;55.720;37.606;2023-05-25T04:42:37;99716.47;;;22.28;54.42
74561;BME280;62979;55.720;37.606;2023-05-25T04:45:06;99707.69;;;22.39;54.01
74561;BME280;62979;55.720;37.606;2023-05-25T04:47:34;99717.56;;;22.50;53.90
74561;BME280;62979;55.720;37.606;2023-05-25T04:50:06;99722.06;;;22.60;53.78
74561;BME280;62979;55.720;37.606;2023-05-25T04:52:34;99716.53;;;22.63;53.49
74561;BME280;62979;55.720;37.606;2023-05-25T04:55:01;99721.41;;;22.70;53.44
74561;BME280;62979;55.720;37.606;2023-05-25T04:57:28;99715.72;;;22.74;53.17
74561;BME280;62979;55.720;37.606;2023-05-25T04:59:57;99715.38;;;22.79;53.33
74561;BME280;62979;55.720;37.606;2023-05-25T05:02:24;99718.69;;;22.82;53.15
74561;BME280;62979;55.720;37.606;2023-05-25T05:04:51;99713.56;;;22.79;53.21
74561;BME280;62979;55.720;37.606;2023-05-25T05:07:19;99718.00;;;22.68;53.30
74561;BME280;62979;55.720;37.606;2023-05-25T05:09:46;99710.38;;;22.63;53.39
74561;BME280;62979;55.720;37.606;2023-05-25T05:12:13;99716.75;;;22.60;53.36
74561;BME280;62979;55.720;37.606;2023-05-25T05:14:40;99715.56;;;22.64;53.39
74561;BME280;62979;55.720;37.606;2023-05-25T05:17:08;99711.09;;;22.65;53.55
74561;BME280;62979;55.720;37.606;2023-05-25T05:19:36;99722.63;;;22.65;53.55
74561;BME280;62979;55.720;37.606;2023-05-25T05:22:03;99715.56;;;22.64;53.60
74561;BME280;62979;55.720;37.606;2023-05-25T05:24:30;99721.75;;;22.65;53.77
74561;BME280;62979;55.720;37.606;2023-05-25T05:26:57;99725.03;;;22.69;54.01
74561;BME280;62979;55.720;37.606;2023-05-25T05:29:24;99720.66;;;22.68;53.86
74561;BME280;62979;55.720;37.606;2023-05-25T05:31:53;99721.41;;;22.70;53.83
74561;BME280;62979;55.720;37.606;2023-05-25T05:34:21;99720.66;;;22.68;53.53
74561;BME280;62979;55.720;37.606;2023-05-25T05:36:48;99718.28;;;22.76;53.12
74561;BME280;62979;55.720;37.606;2023-05-25T05:39:15;99724.38;;;22.78;53.06
74561;BME280;62979;55.720;37.606;2023-05-25T05:41:42;99717.72;;;22.83;52.99
74561;BME280;62979;55.720;37.606;2023-05-25T05:44:09;99721.13;;;22.85;53.30
74561;BME280;62979;55.720;37.606;2023-05-25T05:46:36;99715.91;;;22.84;53.49
74561;BME280;62979;55.720;37.606;2023-05-25T05:49:03;99718.91;;;22.79;53.21
74561;BME280;62979;55.720;37.606;2023-05-25T05:51:31;99723.16;;;22.82;53.60
74561;BME280;62979;55.720;37.606;2023-05-25T05:53:58;99724.41;;;22.89;53.47
74561;BME280;62979;55.720;37.606;2023-05-25T05:56:26;99725.78;;;22.95;53.42
74561;BME280;62979;55.720;37.606;2023-05-25T05:58:52;99725.44;;;22.99;53.17
74561;BME280;62979;55.720;37.606;2023-05-25T06:01:20;99718.31;;;23.00;53.00
74561;BME280;62979;55.720;37.606;2023-05-25T06:03:48;99715.22;;;22.93;52.94
74561;BME280;62979;55.720;37.606;2023-05-25T06:06:16;99725.13;;;22.91;53.43
74561;BME280;62979;55.720;37.606;2023-05-25T06:08:45;99718.47;;;22.85;53.00
74561;BME280;62979;55.720;37.606;2023-05-25T06:11:11;99721.63;;;22.91;53.23
74561;BME280;62979;55.720;37.606;2023-05-25T06:13:39;99712.28;;;22.85;53.11
74561;BME280;62979;55.720;37.606;2023-05-25T06:16:06;99721.50;;;22.92;53.04
74561;BME280;62979;55.720;37.606;2023-05-25T06:18:33;99715.44;;;22.90;52.78
74561;BME280;62979;55.720;37.606;2023-05-25T06:21:00;99717.25;;;22.90;52.86
74561;BME280;62979;55.720;37.606;2023-05-25T06:23:26;99712.03;;;22.88;52.92
74561;BME280;62979;55.720;37.606;2023-05-25T06:25:55;99713.88;;;22.88;52.88
74561;BME280;62979;55.720;37.606;2023-05-25T06:28:21;99711.06;;;22.89;53.18
74561;BME280;62979;55.720;37.606;2023-05-25T06:30:48;99715.66;;;22.87;53.02
74561;BME280;62979;55.720;37.606;2023-05-25T06:33:15;99708.75;;;22.84;52.90
74561;BME280;62979;55.720;37.606;2023-05-25T06:35:42;99713.97;;;22.86;52.97
74561;BME280;62979;55.720;37.606;2023-05-25T06:38:09;99708.63;;;22.86;53.34
74561;BME280;62979;55.720;37.606;2023-05-25T06:40:37;99712.38;;;22.83;52.87
74561;BME280;62979;55.720;37.606;2023-05-25T06:43:05;99718.28;;;22.76;53.45
74561;BME280;62979;55.720;37.606;2023-05-25T06:45:32;99705.66;;;22.67;53.54
74561;BME280;62979;55.720;37.606;2023-05-25T06:47:59;99709.06;;;22.69;53.45
74561;BME280;62979;55.720;37.606;2023-05-25T06:50:26;99713.53;;;22.68;53.60
74561;BME280;62979;55.720;37.606;2023-05-25T06:52:52;99716.53;;;22.63;54.22
74561;BME280;62979;55.720;37.606;2023-05-25T06:55:19;99724.41;;;22.65;53.34
74561;BME280;62979;55.720;37.606;2023-05-25T06:57:46;99727.41;;;22.60;53.90
74561;BME280;62979;55.720;37.606;2023-05-25T07:00:16;99726.81;;;22.57;53.45
74561;BME280;62979;55.720;37.606;2023-05-25T07:02:43;99725.13;;;22.56;53.40
74561;BME280;62979;55.720;37.606;2023-05-25T07:05:10;99728.84;;;22.53;53.62
74561;BME280;62979;55.720;37.606;2023-05-25T07:07:37;99726.41;;;22.50;54.09
74561;BME280;62979;55.720;37.606;2023-05-25T07:10:05;99726.88;;;22.44;54.50
74561;BME280;62979;55.720;37.606;2023-05-25T07:12:32;99730.81;;;22.38;54.92
74561;BME280;62979;55.720;37.606;2023-05-25T07:14:59;99733.59;;;22.37;55.73
74561;BME280;62979;55.720;37.606;2023-05-25T07:17:28;99726.44;;;22.37;56.54
74561;BME280;62979;55.720;37.606;2023-05-25T07:19:55;99709.09;;;22.32;57.85
74561;BME280;62979;55.720;37.606;2023-05-25T07:22:22;99733.38;;;22.40;58.01
74561;BME280;62979;55.720;37.606;2023-05-25T07:24:49;99724.19;;;22.44;57.61
74561;BME280;62979;55.720;37.606;2023-05-25T07:27:16;99720.47;;;22.47;57.53
74561;BME280;62979;55.720;37.606;2023-05-25T07:29:44;99721.28;;;22.47;57.02
74561;BME280;62979;55.720;37.606;2023-05-25T07:32:11;99724.47;;;22.52;57.07
74561;BME280;62979;55.720;37.606;2023-05-25T07:34:40;99713.06;;;22.50;55.91
74561;BME280;62979;55.720;37.606;2023-05-25T07:37:06;99715.41;;;22.55;55.91
74561;BME280;62979;55.720;37.606;2023-05-25T07:39:33;99721.47;;;22.57;55.74
74561;BME280;62979;55.720;37.606;2023-05-25T07:42:00;99716.38;;;22.54;57.11
74561;BME280;62979;55.720;37.606;2023-05-25T07:44:27;99720.13;;;22.51;56.69
74561;BME280;62979;55.720;37.606;2023-05-25T07:46:54;99721.81;;;22.52;56.39
74561;BME280;62979;55.720;37.606;2023-05-25T07:49:21;99721.81;;;22.52;56.51
74561;BME280;62979;55.720;37.606;2023-05-25T07:51:49;99715.63;;;22.52;56.47
74561;BME280;62979;55.720;37.606;2023-05-25T07:54:16;99712.63;;;22.56;56.23
74561;BME280;62979;55.720;37.606;2023-05-25T07:56:43;99718.81;;;22.57;56.06
74561;BME280;62979;55.720;37.606;2023-05-25T07:59:10;99701.47;;;22.51;55.60
74561;BME280;62979;55.720;37.606;2023-05-25T08:01:37;99710.19;;;22.53;55.95
74561;BME280;62979;55.720;37.606;2023-05-25T08:04:04;99713.47;;;22.57;55.63
74561;BME280;62979;55.720;37.606;2023-05-25T08:06:31;99719.88;;;22.54;56.19
74561;BME280;62979;55.720;37.606;2023-05-25T08:08:59;99716.47;;;22.52;56.08
74561;BME280;62979;55.720;37.606;2023-05-25T08:11:28;99710.91;;;22.55;55.12
74561;BME280;62979;55.720;37.606;2023-05-25T08:13:55;99712.63;;;22.56;55.31
74561;BME280;62979;55.720;37.606;2023-05-25T08:16:24;99716.47;;;22.52;55.57
74561;BME280;62979;55.720;37.606;2023-05-25T08:18:51;99714.66;;;22.53;56.16
74561;BME280;62979;55.720;37.606;2023-05-25T08:21:18;99706.66;;;22.53;55.33
74561;BME280;62979;55.720;37.606;2023-05-25T08:23:45;99713.97;;;22.62;55.08
74561;BME280;62979;55.720;37.606;2023-05-25T08:26:14;99718.75;;;22.70;54.65
74561;BME280;62979;55.720;37.606;2023-05-25T08:28:41;99715.97;;;22.71;54.79
74561;BME280;62979;55.720;37.606;2023-05-25T08:31:08;99719.38;;;22.73;54.63
74561;BME280;62979;55.720;37.606;2023-05-25T08:33:36;99718.00;;;22.68;55.78
74561;BME280;62979;55.720;37.606;2023-05-25T08:36:03;99711.31;;;22.62;55.96
74561;BME280;62979;55.720;37.606;2023-05-25T08:38:30;99717.72;;;22.59;55.81
74561;BME280;62979;55.720;37.606;2023-05-25T08:41:02;99718.56;;;22.60;56.08
74561;BME280;62979;55.720;37.606;2023-05-25T08:43:32;99719.66;;;22.57;56.14
74561;BME280;62979;55.720;37.606;2023-05-25T08:46:03;99705.47;;;22.57;55.60
74561;BME280;62979;55.720;37.606;2023-05-25T08:48:32;99711.66;;;22.57;55.36
74561;BME280;62979;55.720;37.606;2023-05-25T08:51:03;99721.38;;;22.58;55.83
74561;BME280;62979;55.720;37.606;2023-05-25T08:53:34;99713.47;;;22.57;55.51
74561;BME280;62979;55.720;37.606;2023-05-25T08:56:07;99719.88;;;22.54;55.67
74561;BME280;62979;55.720;37.606;2023-05-25T08:58:44;99713.31;;;22.47;56.06
74561;BME280;62979;55.720;37.606;2023-05-25T09:01:17;99713.53;;;22.44;56.10
74561;BME280;62979;55.720;37.606;2023-05-25T09:03:47;99710.13;;;22.42;55.98
74561;BME280;62979;55.720;37.606;2023-05-25T09:06:16;99702.94;;;22.31;57.03
74561;BME280;62979;55.720;37.606;2023-05-25T09:08:43;99718.03;;;22.31;58.64
74561;BME280;62979;55.720;37.606;2023-05-25T09:11:11;99715.44;;;22.05;59.58
74561;BME280;62979;55.720;37.606;2023-05-25T09:13:41;99723.09;;;21.97;60.60
74561;BME280;62979;55.720;37.606;2023-05-25T09:16:08;99691.13;;;21.73;60.81
74561;BME280;62979;55.720;37.606;2023-05-25T09:18:35;99716.66;;;21.75;61.54
74561;BME280;62979;55.720;37.606;2023-05-25T09:21:03;99726.22;;;21.65;62.11
74561;BME280;62979;55.720;37.606;2023-05-25T09:23:30;99726.16;;;21.54;63.82
74561;BME280;62979;55.720;37.606;2023-05-25T09:25:57;99715.91;;;21.48;63.93
74561;BME280;62979;55.720;37.606;2023-05-25T09:28:24;99721.00;;;21.25;69.51
74561;BME280;62979;55.720;37.606;2023-05-25T09:30:53;99723.94;;;20.95;73.36
74561;BME280;62979;55.720;37.606;2023-05-25T09:33:21;99708.47;;;20.33;76.05
74561;BME280;62979;55.720;37.606;2023-05-25T09:35:50;99718.78;;;19.82;78.24
74561;BME280;62979;55.720;37.606;2023-05-25T09:38:17;99721.13;;;19.29;81.98
74561;BME280;62979;55.720;37.606;2023-05-25T09:40:44;99724.25;;;18.75;86.06
74561;BME280;62979;55.720;37.606;2023-05-25T09:43:11;99706.53;;;18.30;88.72
74561;BME280;62979;55.720;37.606;2023-05-25T09:45:39;99715.16;;;18.17;90.49
74561;BME280;62979;55.720;37.606;2023-05-25T09:48:07;99721.47;;;18.15;90.80
74561;BME280;62979;55.720;37.606;2023-05-25T09:50:35;99714.88;;;18.38;91.74
74561;BME280;62979;55.720;37.606;2023-05-25T09:53:02;99720.94;;;18.56;92.16
74561;BME280;62979;55.720;37.606;2023-05-25T09:55:29;99712.56;;;18.64;92.73
74561;BME280;62979;55.720;37.606;2023-05-25T09:57:56;99721.75;;;18.72;93.32
74561;BME280;62979;55.720;37.606;2023-05-25T10:00:23;99726.41;;;18.53;93.71
74561;BME280;62979;55.720;37.606;2023-05-25T10:02:52;99723.31;;;18.60;93.54
74561;BME280;62979;55.720;37.606;2023-05-25T10:05:20;99723.75;;;18.69;93.77
74561;BME280;62979;55.720;37.606;2023-05-25T10:07:49;99722.72;;;18.71;93.56
74561;BME280;62979;55.720;37.606;2023-05-25T10:10:19;99723.56;;;18.72;93.81
74561;BME280;62979;55.720;37.606;2023-05-25T10:12:47;99717.19;;;18.76;93.41
74561;BME280;62979;55.720;37.606;2023-05-25T10:15:18;99722.38;;;18.77;93.55
74561;BME280;62979;55.720;37.606;2023-05-25T10:17:51;99726.09;;;18.89;93.62
74561;BME280;62979;55.720;37.606;2023-05-25T10:20:21;99726.03;;;18.91;93.49
74561;BME280;62979;55.720;37.606;2023-05-25T10:22:51;99727.72;;;18.92;93.13
74561;BME280;62979;55.720;37.606;2023-05-25T10:25:28;99715.25;;;18.94;93.34
74561;BME280;62979;55.720;37.606;2023-05-25T10:27:59;99707.97;;;18.97;93.25
74561;BME280;62979;55.720;37.606;2023-05-25T10:30:30;99713.66;;;19.06;92.90
74561;BME280;62979;55.720;37.606;2023-05-25T10:33:01;99714.16;;;19.12;93.07
74561;BME280;62979;55.720;37.606;2023-05-25T10:35:29;99717.59;;;19.14;92.93
74561;BME280;62979;55.720;37.606;2023-05-25T10:37:58;99710.75;;;19.10;92.66
74561;BME280;62979;55.720;37.606;2023-05-25T10:40:26;99711.56;;;19.27;92.43
74561;BME280;62979;55.720;37.606;2023-05-25T10:42:53;99705.50;;;19.39;92.50
74561;BME280;62979;55.720;37.606;2023-05-25T10:45:20;99707.75;;;19.45;91.90
74561;BME280;62979;55.720;37.606;2023-05-25T10:47:48;99702.28;;;19.62;91.77
74561;BME280;62979;55.720;37.606;2023-05-25T10:50:20;99707.25;;;19.69;91.51
74561;BME280;62979;55.720;37.606;2023-05-25T10:53:00;99700.63;;;19.76;91.19
74561;BME280;62979;55.720;37.606;2023-05-25T10:55:40;99694.53;;;19.74;90.17
74561;BME280;62979;55.720;37.606;2023-05-25T10:58:11;99695.88;;;19.81;90.03
74561;BME280;62979;55.720;37.606;2023-05-25T11:00:40;99696.78;;;19.94;90.32
74561;BME280;62979;55.720;37.606;2023-05-25T11:03:07;99696.75;;;20.08;89.82
74561;BME280;62979;55.720;37.606;2023-05-25T11:05:36;99695.84;;;20.09;89.33
74561;BME280;62979;55.720;37.606;2023-05-25T11:08:06;99685.78;;;20.15;88.75
74561;BME280;62979;55.720;37.606;2023-05-25T11:10:43;99683.66;;;20.20;88.51
74561;BME280;62979;55.720;37.606;2023-05-25T11:13:36;99672.91;;;20.21;88.42
74561;BME280;62979;55.720;37.606;2023-05-25T11:16:18;99676.78;;;20.30;87.98
74561;BME280;62979;55.720;37.606;2023-05-25T11:18:51;99679.13;;;20.49;87.66
74561;BME280;62979;55.720;37.606;2023-05-25T11:21:40;99679.09;;;20.63;86.99
74561;BME280;62979;55.720;37.606;2023-05-25T11:24:14;99669.31;;;20.77;86.47
74561;BME280;62979;55.720;37.606;2023-05-25T11:26:55;99669.16;;;20.92;85.65
74561;BME280;62979;55.720;37.606;2023-05-25T11:29:24;99664.69;;;21.06;84.45
74561;BME280;62979;55.720;37.606;2023-05-25T11:31:52;99658.97;;;21.25;84.00
74561;BME280;62979;55.720;37.606;2023-05-25T11:34:21;99655.56;;;21.48;83.07
74561;BME280;62979;55.720;37.606;2023-05-25T11:36:53;99644.47;;;21.67;81.98
74561;BME280;62979;55.720;37.606;2023-05-25T11:39:23;99655.97;;;21.80;81.67
74561;BME280;62979;55.720;37.606;2023-05-25T11:41:53;99647.13;;;21.80;80.94
74561;BME280;62979;55.720;37.606;2023-05-25T11:44:25;99634.56;;;21.69;80.28
74561;BME280;62979;55.720;37.606;2023-05-25T11:47:00;99646.94;;;21.70;79.65
74561;BME280;62979;55.720;37.606;2023-05-25T11:49:30;99650.25;;;21.61;80.21
74561;BME280;62979;55.720;37.606;2023-05-25T11:51:57;99637.06;;;21.47;79.67
74561;BME280;62979;55.720;37.606;2023-05-25T11:54:26;99642.25;;;21.35;79.58
74561;BME280;62979;55.720;37.606;2023-05-25T11:56:55;99638.53;;;21.25;79.44
74561;BME280;62979;55.720;37.606;2023-05-25T11:59:24;99647.47;;;21.24;79.54
74561;BME280;62979;55.720;37.606;2023-05-25T12:01:56;99640.03;;;21.29;79.51
74561;BME280;62979;55.720;37.606;2023-05-25T12:04:24;99645.97;;;21.33;79.66
74561;BME280;62979;55.720;37.606;2023-05-25T12:06:51;99638.75;;;21.35;79.10
74561;BME280;62979;55.720;37.606;2023-05-25T12:09:19;99643.22;;;21.34;79.09
74561;BME280;62979;55.720;37.606;2023-05-25T12:11:48;99650.03;;;21.38;78.45
74561;BME280;62979;55.720;37.606;2023-05-25T12:14:16;99642.59;;;21.44;78.55
74561;BME280;62979;55.720;37.606;2023-05-25T12:16:43;99644.06;;;21.48;78.57
74561;BME280;62979;55.720;37.606;2023-05-25T12:19:11;99637.78;;;21.62;78.31
74561;BME280;62979;55.720;37.606;2023-05-25T12:21:39;99636.06;;;21.73;77.86
74561;BME280;62979;55.720;37.606;2023-05-25T12:24:07;99628.31;;;21.70;76.58
74561;BME280;62979;55.720;37.606;2023-05-25T12:26:46;99627.66;;;21.67;77.30
74561;BME280;62979;55.720;37.606;2023-05-25T12:29:15;99634.06;;;21.64;76.49
74561;BME280;62979;55.720;37.606;2023-05-25T12:31:42;99630.88;;;21.59;76.64
74561;BME280;62979;55.720;37.606;2023-05-25T12:34:11;99626.94;;;21.52;75.46
74561;BME280;62979;55.720;37.606;2023-05-25T12:36:43;99629.50;;;21.53;76.14
74561;BME280;62979;55.720;37.606;2023-05-25T12:39:13;99629.38;;;21.55;75.74
74561;BME280;62979;55.720;37.606;2023-05-25T12:41:42;99621.91;;;21.60;75.87
74561;BME280;62979;55.720;37.606;2023-05-25T12:44:19;99623.78;;;21.84;74.28
74561;BME280;62979;55.720;37.606;2023-05-25T12:46:49;99622.06;;;21.95;74.03
74561;BME280;62979;55.720;37.606;2023-05-25T12:49:24;99627.66;;;22.04;73.37
74561;BME280;62979;55.720;37.606;2023-05-25T12:51:52;99625.63;;;22.07;72.49
74561;BME280;62979;55.720;37.606;2023-05-25T12:54:36;99625.28;;;22.12;72.65
74561;BME280;62979;55.720;37.606;2023-05-25T12:57:11;99628.16;;;22.09;71.44